Time;durP1;ratioP1;P1;durP2;ratioP2;P2;SDS_P1;SDS_P2;PMS_P1;PMS_P2;Temp;Humidity;BMP_temperature;BMP_pressure;BME280_temperature;BME280_humidity;BME280_pressure;Samples;Min_cycle;Max_cycle;Signal;HPM_P1;HPM_P2
2022/11/11 00:00:29;;;;;;;15.80;10.43;;;10.20;99.90;;;;;;4921642;28;90142;-30
2022/11/11 00:02:55;;;;;;;19.05;9.32;;;10.20;99.90;;;;;;4920495;28;89668;-31
2022/11/11 00:05:21;;;;;;;10.02;8.80;;;10.10;99.90;;;;;;4920631;28;91725;-32
2022/11/11 00:07:47;;;;;;;14.52;9.13;;;10.10;99.90;;;;;;4921135;28;89702;-31
2022/11/11 00:10:13;;;;;;;15.88;9.95;;;10.20;99.90;;;;;;4921574;28;90154;-31
2022/11/11 00:12:38;;;;;;;12.30;8.95;;;10.20;99.90;;;;;;4921239;28;89888;-32
2022/11/11 00:15:05;;;;;;;11.43;9.23;;;10.20;99.90;;;;;;4920871;28;89872;-32
2022/11/11 00:25:45;;;;;;;11.10;9.90;;;10.40;99.90;;;;;;4919460;28;89547;-32
2022/11/11 00:28:11;;;;;;;12.35;9.73;;;10.40;99.90;;;;;;4921221;28;89605;-31
2022/11/11 00:30:36;;;;;;;17.85;10.55;;;10.40;99.90;;;;;;4906821;28;89718;-31
2022/11/11 00:33:02;;;;;;;19.45;10.63;;;10.40;99.90;;;;;;4907066;28;89712;-33
2022/11/11 00:40:58;;;;;;;12.27;10.63;;;10.50;99.90;;;;;;4920288;28;89154;-31
2022/11/11 00:43:23;;;;;;;14.50;10.52;;;10.50;99.90;;;;;;4919395;28;90099;-33
2022/11/11 00:45:49;;;;;;;16.23;11.73;;;10.50;99.90;;;;;;4919995;28;90858;-32
2022/11/11 00:50:59;;;;;;;18.40;11.45;;;10.50;99.90;;;;;;4920268;28;90175;-32
2022/11/11 00:53:31;;;;;;;17.27;12.38;;;10.50;99.90;;;;;;4920092;28;91209;-30
2022/11/11 00:55:57;;;;;;;17.30;12.50;;;10.50;99.90;;;;;;4919645;28;89784;-32
2022/11/11 00:58:24;;;;;;;20.95;11.05;;;10.60;99.90;;;;;;4920113;28;90160;-32
2022/11/11 01:00:52;;;;;;;15.98;10.38;;;10.50;99.90;;;;;;4919453;28;89869;-33
2022/11/11 01:03:18;;;;;;;;;;;10.50;99.90;;;;;;4919942;28;89593;-32
2022/11/11 01:05:44;;;;;;;15.48;11.40;;;10.50;99.90;;;;;;4921797;28;88575;-31
2022/11/11 01:08:09;;;;;;;14.52;11.82;;;10.50;99.90;;;;;;4919105;28;89226;-31
2022/11/11 01:10:42;;;;;;;20.35;12.10;;;10.50;99.90;;;;;;4905690;28;92087;-32
2022/11/11 01:13:23;;;;;;;18.02;12.55;;;10.50;99.90;;;;;;4903850;28;90206;-32
2022/11/11 01:15:51;;;;;;;17.00;13.15;;;10.50;99.90;;;;;;4908292;28;89565;-34
2022/11/11 01:18:20;;;;;;;20.70;13.00;;;10.50;99.90;;;;;;4911757;28;89178;-31
2022/11/11 01:20:45;;;;;;;;;;;10.50;99.90;;;;;;4913770;28;90160;-32
2022/11/11 01:23:12;;;;;;;15.73;12.45;;;10.50;99.90;;;;;;4920369;28;89828;-31
2022/11/11 01:25:40;;;;;;;17.08;12.57;;;10.50;99.90;;;;;;4919676;28;90003;-31
2022/11/11 01:28:07;;;;;;;18.92;13.27;;;10.50;99.90;;;;;;4905677;28;89714;-33
2022/11/11 01:30:34;;;;;;;19.02;12.52;;;10.50;99.90;;;;;;4921365;28;89164;-31
2022/11/11 01:33:01;;;;;;;16.08;14.05;;;10.50;99.90;;;;;;4921825;28;91578;-32
2022/11/11 01:35:26;;;;;;;17.45;14.77;;;10.40;99.90;;;;;;4922761;28;90270;-30
2022/11/11 01:37:52;;;;;;;19.63;13.77;;;10.40;99.90;;;;;;4922902;28;89738;-33
2022/11/11 01:40:18;;;;;;;18.10;12.98;;;10.30;99.90;;;;;;4922691;28;89995;-33
2022/11/11 01:42:49;;;;;;;24.45;14.25;;;10.30;99.90;;;;;;4922210;28;89947;-32
2022/11/11 01:45:58;;;;;;;21.45;14.07;;;10.20;99.90;;;;;;4908975;28;89562;-31
2022/11/11 01:51:39;;;;;;;17.52;13.63;;;10.10;99.90;;;;;;4922694;28;90191;-31
2022/11/11 01:54:15;;;;;;;25.92;14.93;;;10.00;99.90;;;;;;4923063;28;89462;-31
2022/11/11 01:56:46;;;;;;;23.83;15.25;;;10.00;99.90;;;;;;4922151;28;91504;-30
2022/11/11 01:59:15;;;;;;;21.90;14.20;;;10.10;99.90;;;;;;4922177;28;90442;-31
2022/11/11 02:01:42;;;;;;;18.98;15.27;;;10.00;99.90;;;;;;4922431;28;90617;-32
2022/11/11 02:06:57;;;;;;;17.48;14.40;;;10.00;99.90;;;;;;4921757;28;89697;-31
2022/11/11 02:09:24;;;;;;;21.65;15.02;;;9.90;99.90;;;;;;4922392;28;89088;-30
2022/11/11 02:14:42;;;;;;;19.80;15.15;;;9.90;99.90;;;;;;4922154;28;89446;-32
2022/11/11 02:17:13;;;;;;;22.92;13.45;;;9.80;99.90;;;;;;4922184;28;89576;-33
2022/11/11 02:19:47;;;;;;;22.15;15.55;;;9.90;99.90;;;;;;4910102;28;88182;-31
2022/11/11 02:22:22;;;;;;;25.02;16.63;;;9.80;99.90;;;;;;4921349;28;90099;-32
2022/11/11 02:24:50;;;;;;;23.08;17.63;;;9.90;99.90;;;;;;4921229;28;91275;-31
2022/11/11 02:27:18;;;;;;;21.58;16.98;;;9.80;99.90;;;;;;4922572;28;90473;-31
2022/11/11 02:29:47;;;;;;;24.95;18.23;;;9.80;99.90;;;;;;4922101;28;89214;-32
2022/11/11 02:32:13;;;;;;;23.10;16.55;;;9.80;99.90;;;;;;4922076;28;90634;-31
2022/11/11 02:34:39;;;;;;;19.55;17.13;;;9.80;99.90;;;;;;4921444;28;90445;-31
2022/11/11 02:37:07;;;;;;;25.08;19.45;;;9.80;99.90;;;;;;4921894;28;90621;-32
2022/11/11 02:39:34;;;;;;;;;;;9.80;99.90;;;;;;4923016;28;89223;-30
2022/11/11 02:41:59;;;;;;;29.70;20.10;;;9.80;99.90;;;;;;4922788;28;90030;-32
2022/11/11 02:44:26;;;;;;;26.95;20.25;;;9.70;99.90;;;;;;4904522;28;89418;-32
2022/11/11 02:46:52;;;;;;;26.27;18.25;;;9.70;99.90;;;;;;4921823;28;89755;-32
2022/11/11 02:49:18;;;;;;;24.63;18.45;;;9.80;99.90;;;;;;4921616;28;89332;-30
2022/11/11 02:51:43;;;;;;;23.33;19.65;;;9.70;99.90;;;;;;4922050;28;89605;-31
2022/11/11 02:54:09;;;;;;;23.73;18.83;;;9.70;99.90;;;;;;4921792;28;89720;-32
2022/11/11 02:59:20;;;;;;;25.80;20.70;;;9.70;99.90;;;;;;4921817;28;88115;-31
2022/11/11 03:01:46;;;;;;;35.53;23.60;;;9.70;99.90;;;;;;4921409;28;90634;-31
2022/11/11 03:04:12;;;;;;;30.60;23.13;;;9.70;99.90;;;;;;4922021;28;88703;-32
2022/11/11 03:06:37;;;;;;;31.50;21.42;;;9.70;99.90;;;;;;4920864;28;90161;-31
2022/11/11 03:09:03;;;;;;;31.20;22.98;;;9.70;99.90;;;;;;4921041;28;88681;-33
2022/11/11 03:11:29;;;;;;;25.55;19.88;;;9.80;99.90;;;;;;4921364;28;90295;-32
2022/11/11 03:13:58;;;;;;;34.25;24.67;;;9.70;99.90;;;;;;4920516;28;90964;-32
2022/11/11 03:17:38;;;;;;;33.22;21.88;;;9.80;99.90;;;;;;4921431;28;90649;-32
2022/11/11 03:19:13;;;;;;;31.23;23.48;;;9.80;99.90;;;;;;4906814;28;89344;-29
2022/11/11 03:21:39;;;;;;;32.08;24.90;;;9.80;99.90;;;;;;4920976;28;90712;-35
2022/11/11 03:24:05;;;;;;;31.35;24.73;;;9.70;99.90;;;;;;4920992;28;89850;-32
2022/11/11 03:26:31;;;;;;;32.63;23.23;;;9.80;99.90;;;;;;4921551;28;89999;-31
2022/11/11 03:28:57;;;;;;;31.02;24.42;;;9.80;99.90;;;;;;4921442;28;88467;-32
2022/11/11 03:31:22;;;;;;;30.70;24.98;;;9.80;99.90;;;;;;4920535;28;90263;-32
2022/11/11 03:33:48;;;;;;;28.88;23.85;;;9.80;99.90;;;;;;4920892;28;89711;-30
2022/11/11 03:36:14;;;;;;;38.35;27.08;;;9.70;99.90;;;;;;4920581;28;90317;-32
2022/11/11 03:38:40;;;;;;;31.80;25.20;;;9.80;99.90;;;;;;4921254;28;89420;-34
2022/11/11 03:41:05;;;;;;;33.92;24.85;;;9.70;99.90;;;;;;4920770;28;90203;-30
2022/11/11 03:43:33;;;;;;;35.03;22.65;;;9.80;99.90;;;;;;4920783;28;88830;-33
2022/11/11 03:46:00;;;;;;;35.20;29.30;;;9.80;99.90;;;;;;4920505;28;89863;-31
2022/11/11 03:48:28;;;;;;;30.60;25.03;;;9.70;99.90;;;;;;4921241;28;89510;-31
2022/11/11 03:50:53;;;;;;;28.73;25.50;;;9.80;99.90;;;;;;4921015;28;90357;-31
2022/11/11 03:53:20;;;;;;;35.90;26.25;;;9.80;99.90;;;;;;4920393;28;90227;-31
2022/11/11 03:55:47;;;;;;;38.45;26.63;;;9.90;99.90;;;;;;4920856;28;90217;-30
2022/11/11 03:58:13;;;;;;;33.72;27.83;;;10.00;99.90;;;;;;4920492;28;88961;-33
2022/11/11 04:00:39;;;;;;;36.85;28.92;;;10.00;99.90;;;;;;4920334;28;89057;-32
2022/11/11 04:11:38;;;;;;;33.67;26.52;;;10.00;99.90;;;;;;4920419;28;90493;-33
2022/11/11 04:16:55;;;;;;;39.15;28.52;;;10.10;99.90;;;;;;4920020;28;89611;-32
2022/11/11 04:22:05;;;;;;;44.80;26.90;;;10.10;99.90;;;;;;4920541;28;90236;-31
2022/11/11 04:27:17;;;;;;;45.70;28.60;;;10.10;99.90;;;;;;4920502;28;89818;-32
2022/11/11 04:29:43;;;;;;;39.47;28.73;;;10.20;99.90;;;;;;4906318;28;89207;-32
2022/11/11 04:34:58;;;;;;;35.72;27.42;;;10.20;99.90;;;;;;4920412;28;90138;-31
2022/11/11 04:37:25;;;;;;;36.72;29.48;;;10.20;99.90;;;;;;4920593;28;89499;-33
2022/11/11 04:42:37;;;;;;;34.33;28.05;;;10.30;99.90;;;;;;4919951;28;90198;-31
2022/11/11 04:48:05;;;;;;;34.47;26.27;;;10.20;99.90;;;;;;4919924;28;89899;-33
2022/11/11 04:50:33;;;;;;;43.95;27.63;;;10.30;99.90;;;;;;4920500;28;89132;-34
2022/11/11 04:53:00;;;;;;;35.97;29.35;;;10.30;99.90;;;;;;4919931;28;89427;-31
2022/11/11 04:58:11;;;;;;;39.75;28.05;;;10.30;99.90;;;;;;4919645;28;90448;-32
2022/11/11 05:00:36;;;;;;;38.70;27.80;;;10.40;99.90;;;;;;4920211;28;90363;-30
2022/11/11 05:03:14;;;;;;;36.13;28.00;;;10.40;99.90;;;;;;4919251;28;90848;-31
2022/11/11 05:11:14;;;;;;;36.20;26.58;;;10.40;99.90;;;;;;4920065;28;89482;-30
2022/11/11 05:22:01;;;;;;;36.65;26.83;;;10.50;99.90;;;;;;4917938;28;90018;-32
2022/11/11 05:27:11;;;;;;;36.33;26.50;;;10.50;99.90;;;;;;4919559;28;89049;-32
2022/11/11 05:29:37;;;;;;;33.15;25.63;;;10.50;99.90;;;;;;4919990;28;90621;-30
2022/11/11 05:32:03;;;;;;;33.17;25.83;;;10.50;99.90;;;;;;4919155;28;88038;-31
2022/11/11 05:34:29;;;;;;;31.23;24.05;;;10.50;99.90;;;;;;4918385;28;90342;-31
2022/11/11 05:36:54;;;;;;;35.97;26.38;;;10.50;99.90;;;;;;4919391;28;89239;-32
2022/11/11 05:39:20;;;;;;;29.38;25.55;;;10.50;99.90;;;;;;4919219;28;89764;-32
2022/11/11 05:41:46;;;;;;;37.97;25.23;;;10.50;99.90;;;;;;4919491;28;88962;-32
2022/11/11 05:44:11;;;;;;;36.40;25.90;;;10.50;99.90;;;;;;4919109;28;90060;-32
2022/11/11 05:46:37;;;;;;;34.22;25.90;;;10.50;99.90;;;;;;4918531;28;91126;-32
2022/11/11 05:49:14;;;;;;;31.23;24.58;;;10.50;99.90;;;;;;4918979;28;90727;-31
2022/11/11 05:51:40;;;;;;;37.80;25.13;;;10.50;99.90;;;;;;4918665;28;89597;-33
2022/11/11 05:54:05;;;;;;;35.83;27.27;;;10.50;99.90;;;;;;4919248;28;90168;-32
2022/11/11 05:56:31;;;;;;;28.80;24.45;;;10.50;99.90;;;;;;4919154;28;89841;-32
2022/11/11 05:58:57;;;;;;;41.60;26.10;;;10.50;99.90;;;;;;4918130;28;90185;-33
2022/11/11 06:01:22;;;;;;;38.47;27.63;;;10.50;99.90;;;;;;4919391;28;88881;-30
2022/11/11 06:03:48;;;;;;;31.50;26.30;;;10.60;99.90;;;;;;4918406;28;90006;-33
2022/11/11 06:06:14;;;;;;;41.55;27.17;;;10.50;99.90;;;;;;4918946;28;89628;-31
2022/11/11 06:08:40;;;;;;;34.13;24.52;;;10.50;99.90;;;;;;4918039;28;89782;-33
2022/11/11 06:11:06;;;;;;;36.50;25.30;;;10.60;99.90;;;;;;4918552;28;90928;-32
2022/11/11 06:13:31;;;;;;;32.80;24.73;;;10.60;99.90;;;;;;4919127;28;90202;-31
2022/11/11 06:15:58;;;;;;;32.42;24.48;;;10.60;99.90;;;;;;4917781;28;90264;-30
2022/11/11 06:18:24;;;;;;;34.90;26.17;;;10.50;99.90;;;;;;4906880;28;89327;-32
2022/11/11 06:20:57;;;;;;;31.58;25.40;;;10.60;99.90;;;;;;4919122;28;88384;-32
2022/11/11 06:23:24;;;;;;;30.95;22.65;;;10.60;99.90;;;;;;4922455;28;91012;-32
2022/11/11 06:28:34;;;;;;;37.58;26.52;;;10.60;99.90;;;;;;4922612;28;89654;-31
2022/11/11 06:31:00;;;;;;;30.08;22.70;;;10.60;99.90;;;;;;4922278;28;89807;-31
2022/11/11 06:33:25;;;;;;;37.17;24.33;;;10.70;99.90;;;;;;4921711;28;89423;-31
2022/11/11 06:35:51;;;;;;;29.52;23.67;;;10.60;99.90;;;;;;4921563;28;89571;-31
2022/11/11 06:38:17;;;;;;;30.92;25.48;;;10.60;99.90;;;;;;4921605;28;90664;-31
2022/11/11 06:40:44;;;;;;;37.20;24.35;;;10.70;99.90;;;;;;4922080;28;88396;-31
2022/11/11 06:43:10;;;;;;;32.60;25.05;;;10.60;99.90;;;;;;4921983;28;90369;-30
2022/11/11 06:45:36;;;;;;;28.98;23.55;;;10.70;99.90;;;;;;4921290;28;89891;-33
2022/11/11 06:48:03;;;;;;;30.88;23.42;;;10.70;99.90;;;;;;4921216;28;88387;-33
2022/11/11 06:50:29;;;;;;;30.98;23.60;;;10.70;99.90;;;;;;4922104;28;90048;-31
2022/11/11 06:52:55;;;;;;;32.75;22.90;;;10.70;99.90;;;;;;4921315;28;90508;-33
2022/11/11 06:55:22;;;;;;;28.98;24.60;;;10.70;99.90;;;;;;4921897;28;89621;-32
2022/11/11 06:57:47;;;;;;;31.60;23.02;;;10.70;99.90;;;;;;4921441;28;89569;-30
2022/11/11 07:00:13;;;;;;;38.42;24.67;;;10.70;99.90;;;;;;4920867;28;88820;-31
2022/11/11 07:02:39;;;;;;;31.38;25.05;;;10.70;99.90;;;;;;4921635;28;91115;-31
2022/11/11 07:05:05;;;;;;;33.22;22.85;;;10.60;99.90;;;;;;4921365;28;89716;-32
2022/11/11 07:07:31;;;;;;;28.63;20.20;;;10.70;99.90;;;;;;4920353;28;89633;-32
2022/11/11 07:09:56;;;;;;;28.67;20.08;;;10.70;99.90;;;;;;4922201;28;89498;-31
2022/11/11 07:12:23;;;;;;;36.25;24.27;;;10.70;99.90;;;;;;4921525;28;90232;-31
2022/11/11 07:14:48;;;;;;;31.42;22.10;;;10.70;99.90;;;;;;4921093;28;90132;-30
2022/11/11 07:17:14;;;;;;;29.33;22.35;;;10.70;99.90;;;;;;4920059;28;88630;-31
2022/11/11 07:19:39;;;;;;;26.58;21.48;;;10.70;99.90;;;;;;4908544;28;89970;-34
2022/11/11 07:22:05;;;;;;;29.60;22.27;;;10.70;99.90;;;;;;4921332;28;90561;-31
2022/11/11 07:24:31;;;;;;;29.13;23.63;;;10.70;99.90;;;;;;4921130;28;90568;-31
2022/11/11 07:26:58;;;;;;;28.63;21.50;;;10.70;99.90;;;;;;4921529;28;90533;-32
2022/11/11 07:29:23;;;;;;;27.15;22.58;;;10.70;99.90;;;;;;4920833;28;89756;-30
2022/11/11 07:31:50;;;;;;;27.38;21.70;;;10.70;99.90;;;;;;4920471;28;90130;-33
2022/11/11 07:34:15;;;;;;;30.27;22.38;;;10.70;99.90;;;;;;4920930;28;89714;-32
2022/11/11 07:36:41;;;;;;;34.42;20.10;;;10.70;99.90;;;;;;4920715;28;89816;-31
2022/11/11 07:39:06;;;;;;;23.90;21.13;;;10.70;99.90;;;;;;4921628;28;88558;-32
2022/11/11 07:41:32;;;;;;;30.35;21.63;;;10.70;99.90;;;;;;4920809;28;90090;-32
2022/11/11 07:43:58;;;;;;;24.42;21.23;;;10.70;99.90;;;;;;4920542;28;89515;-32
2022/11/11 07:46:23;;;;;;;33.38;20.95;;;10.80;99.90;;;;;;4920849;28;89562;-32
2022/11/11 07:48:49;;;;;;;29.00;19.52;;;10.80;99.90;;;;;;4919950;28;88795;-31
2022/11/11 07:51:14;;;;;;;29.05;20.42;;;10.80;99.90;;;;;;4921449;28;90321;-31
2022/11/11 07:53:40;;;;;;;36.55;20.80;;;10.80;99.90;;;;;;4920070;28;89455;-33
2022/11/11 07:56:06;;;;;;;31.77;21.05;;;10.80;99.90;;;;;;4921074;28;89762;-32
2022/11/11 07:58:31;;;;;;;27.33;21.75;;;10.80;99.90;;;;;;4920326;28;88720;-31
2022/11/11 08:01:00;;;;;;;35.05;23.35;;;10.70;99.90;;;;;;4920114;28;90315;-32
2022/11/11 08:03:26;;;;;;;31.35;22.23;;;10.80;99.90;;;;;;4920961;28;90201;-30
2022/11/11 08:05:51;;;;;;;27.88;19.23;;;10.80;99.90;;;;;;4919867;28;89237;-31
2022/11/11 08:08:17;;;;;;;31.48;20.10;;;10.80;99.90;;;;;;4919580;28;89379;-31
2022/11/11 08:10:42;;;;;;;26.10;19.55;;;10.80;99.90;;;;;;4920591;28;90020;-31
2022/11/11 08:15:55;;;;;;;26.95;20.05;;;10.90;99.90;;;;;;4920082;28;90327;-31
2022/11/11 08:18:20;;;;;;;32.08;18.13;;;10.80;99.90;;;;;;4910588;28;88046;-32
2022/11/11 08:20:46;;;;;;;25.58;18.40;;;10.80;99.90;;;;;;4916093;28;89581;-32
2022/11/11 08:23:13;;;;;;;24.90;19.85;;;10.80;99.90;;;;;;4920679;28;89698;-31
2022/11/11 08:25:39;;;;;;;25.90;18.95;;;10.90;99.90;;;;;;4920567;28;88653;-30
2022/11/11 08:28:06;;;;;;;33.85;19.15;;;11.00;99.90;;;;;;4920158;28;89058;-31
2022/11/11 08:30:32;;;;;;;26.17;19.08;;;10.90;99.90;;;;;;4920912;28;89819;-31
2022/11/11 08:32:58;;;;;;;22.40;19.27;;;10.90;99.90;;;;;;4919719;28;88534;-31
2022/11/11 08:35:24;;;;;;;28.88;21.35;;;10.90;99.90;;;;;;4920192;28;89191;-32
2022/11/11 08:37:50;;;;;;;26.45;19.83;;;10.90;99.90;;;;;;4919781;28;90506;-31
2022/11/11 08:40:16;;;;;;;25.30;20.20;;;11.00;99.90;;;;;;4919089;28;89998;-31
2022/11/11 08:42:42;;;;;;;22.65;18.75;;;11.00;99.90;;;;;;4919545;28;90094;-32
2022/11/11 08:45:08;;;;;;;26.80;19.15;;;11.00;99.90;;;;;;4919697;28;90762;-32
2022/11/11 08:47:35;;;;;;;24.88;20.35;;;11.00;99.90;;;;;;4920177;28;88922;-31
2022/11/11 08:50:01;;;;;;;25.52;20.40;;;11.00;99.90;;;;;;4920363;28;90329;-31
2022/11/11 08:52:26;;;;;;;27.60;18.90;;;11.00;99.90;;;;;;4919660;28;90263;-33
2022/11/11 08:54:52;;;;;;;26.63;19.88;;;11.00;99.90;;;;;;4919314;28;89193;-32
2022/11/11 08:57:17;;;;;;;24.50;18.35;;;11.00;99.90;;;;;;4919957;28;89489;-30
2022/11/11 08:59:43;;;;;;;28.67;20.05;;;11.00;99.90;;;;;;4919344;28;90331;-32
2022/11/11 09:02:11;;;;;;;25.70;19.02;;;11.00;99.90;;;;;;4919651;28;90467;-31
2022/11/11 09:04:37;;;;;;;26.67;18.38;;;11.10;99.90;;;;;;4919999;28;90781;-31
2022/11/11 09:07:03;;;;;;;27.20;19.40;;;11.20;99.90;;;;;;4919204;28;88273;-30
2022/11/11 09:09:28;;;;;;;25.38;16.85;;;11.20;99.90;;;;;;4949791;23;90379;-32
2022/11/11 09:11:54;;;;;;;24.17;17.27;;;11.20;99.90;;;;;;4917822;28;89336;-32
2022/11/11 09:14:20;;;;;;;30.35;18.10;;;11.20;99.90;;;;;;4920247;28;89520;-31
2022/11/11 09:16:45;;;;;;;26.58;18.23;;;11.20;99.90;;;;;;4919576;28;88525;-31
2022/11/11 09:19:11;;;;;;;21.25;17.27;;;11.20;99.90;;;;;;4919572;28;90327;-31
2022/11/11 09:21:37;;;;;;;28.90;19.17;;;11.30;99.90;;;;;;4919541;28;88641;-31
2022/11/11 09:24:02;;;;;;;26.15;19.08;;;11.40;99.90;;;;;;4919134;28;89385;-31
2022/11/11 09:26:28;;;;;;;20.15;17.50;;;11.30;99.90;;;;;;4919831;28;89152;-32
2022/11/11 09:28:54;;;;;;;25.25;18.35;;;11.30;99.90;;;;;;4919627;28;89994;-32
2022/11/11 09:31:19;;;;;;;24.13;18.70;;;11.30;99.90;;;;;;4919344;28;89311;-31
2022/11/11 09:33:45;;;;;;;21.65;16.67;;;11.40;99.90;;;;;;4919062;28;89822;-32
2022/11/11 09:36:10;;;;;;;24.23;18.27;;;11.30;99.90;;;;;;4918951;28;89204;-31
2022/11/11 09:38:36;;;;;;;19.83;17.63;;;11.30;99.90;;;;;;4919825;28;90064;-32
2022/11/11 09:41:22;;;;;;;25.23;18.48;;;11.30;99.90;;;;;;4918717;28;90048;-30
2022/11/11 09:43:55;;;;;;;24.10;19.25;;;11.30;99.90;;;;;;4918462;28;89470;-32
2022/11/11 09:46:42;;;;;;;22.80;19.17;;;11.40;99.90;;;;;;4918777;28;89838;-31
2022/11/11 09:49:19;;;;;;;24.77;21.92;;;11.40;99.90;;;;;;4918840;28;90360;-31
2022/11/11 09:52:01;;;;;;;28.83;21.25;;;11.40;99.90;;;;;;4920434;28;90607;-31
2022/11/11 09:54:37;;;;;;;29.27;21.85;;;11.40;99.90;;;;;;4922191;28;90469;-33
2022/11/11 09:57:09;;;;;;;32.90;20.95;;;11.50;99.90;;;;;;4922442;28;89481;-33
2022/11/11 09:59:45;;;;;;;28.65;20.90;;;11.50;99.90;;;;;;4922505;28;90215;-30
2022/11/11 10:02:21;;;;;;;30.67;22.63;;;11.50;99.90;;;;;;4910495;28;87861;-33
2022/11/11 10:05:13;;;;;;;25.75;20.50;;;11.50;99.90;;;;;;4922543;28;89918;-31
2022/11/11 10:07:47;;;;;;;30.33;21.63;;;11.40;99.90;;;;;;4913745;28;88514;-33
2022/11/11 10:10:19;;;;;;;30.40;21.80;;;11.50;99.90;;;;;;4920886;28;91757;-31
2022/11/11 10:12:51;;;;;;;31.33;22.10;;;11.50;99.90;;;;;;4921851;28;90148;-31
2022/11/11 10:15:17;;;;;;;26.52;21.05;;;11.50;99.90;;;;;;4922085;28;89675;-32
2022/11/11 10:17:49;;;;;;;30.45;24.00;;;11.50;99.90;;;;;;4921991;28;90167;-31
2022/11/11 10:20:34;;;;;;;27.08;21.50;;;11.50;99.90;;;;;;4922376;28;88959;-33
2022/11/11 10:23:08;;;;;;;29.65;22.38;;;11.50;99.90;;;;;;4909099;28;89614;-31
2022/11/11 10:25:34;;;;;;;28.90;20.95;;;11.50;99.90;;;;;;4922564;28;90112;-31
2022/11/11 10:28:01;;;;;;;32.47;20.35;;;11.50;99.90;;;;;;4922072;28;89628;-32
2022/11/11 10:30:31;;;;;;;27.50;20.58;;;11.50;99.90;;;;;;4920789;28;90947;-32
2022/11/11 10:33:11;;;;;;;28.60;22.52;;;11.50;99.90;;;;;;4921465;28;89211;-31
2022/11/11 10:35:40;;;;;;;27.80;20.92;;;11.50;99.90;;;;;;4922165;28;91319;-31
2022/11/11 10:38:33;;;;;;;26.20;18.05;;;11.50;99.90;;;;;;4921957;28;87677;-31
2022/11/11 10:41:10;;;;;;;26.20;20.73;;;11.50;99.90;;;;;;4922034;28;89839;-30
2022/11/11 10:43:36;;;;;;;28.38;20.92;;;11.40;99.90;;;;;;4921649;28;91925;-30
2022/11/11 10:46:12;;;;;;;26.95;18.15;;;11.40;99.90;;;;;;4921354;28;90254;-31
2022/11/11 10:49:00;;;;;;;27.05;19.90;;;11.40;99.90;;;;;;4922404;28;89387;-33
2022/11/11 10:51:37;;;;;;;24.92;19.52;;;11.40;99.90;;;;;;4921815;28;90487;-32
2022/11/11 10:54:13;;;;;;;28.67;19.90;;;11.30;99.90;;;;;;4921698;28;90098;-33
2022/11/11 10:56:57;;;;;;;23.25;18.55;;;11.30;99.90;;;;;;4920919;28;89587;-31
2022/11/11 10:59:46;;;;;;;22.45;18.38;;;11.20;99.90;;;;;;4922050;28;88562;-31
2022/11/11 11:02:23;;;;;;;29.40;20.52;;;11.20;99.90;;;;;;4909240;28;90290;-32
2022/11/11 11:04:54;;;;;;;21.67;17.38;;;11.20;99.90;;;;;;4921157;28;88716;-30
2022/11/11 11:07:37;;;;;;;24.15;17.85;;;11.20;99.90;;;;;;4921775;28;89788;-34
2022/11/11 11:10:12;;;;;;;26.63;19.15;;;11.20;99.90;;;;;;4920254;28;89585;-32
2022/11/11 11:12:44;;;;;;;22.92;17.63;;;11.10;99.90;;;;;;4920672;28;90455;-32
2022/11/11 11:15:18;;;;;;;23.15;18.55;;;11.10;99.90;;;;;;4921220;28;89645;-31
2022/11/11 11:17:54;;;;;;;23.23;18.95;;;11.20;99.90;;;;;;4921568;28;89568;-31
2022/11/11 11:20:20;;;;;;;24.65;18.83;;;11.20;99.90;;;;;;4921467;28;89521;-31
2022/11/11 11:22:51;;;;;;;22.33;17.70;;;11.20;99.90;;;;;;4920359;28;90366;-32
2022/11/11 11:25:21;;;;;;;21.92;18.10;;;11.30;99.90;;;;;;4920882;28;88790;-31
2022/11/11 11:27:50;;;;;;;24.63;18.27;;;11.30;99.90;;;;;;4920385;28;89913;-29
2022/11/11 11:30:20;;;;;;;23.50;19.60;;;11.30;99.90;;;;;;4921235;28;89915;-33
2022/11/11 11:32:57;;;;;;;27.45;17.55;;;11.40;99.90;;;;;;4920791;28;90852;-31
2022/11/11 11:35:32;;;;;;;20.92;17.33;;;11.50;99.90;;;;;;4920228;28;90547;-33
2022/11/11 11:37:57;;;;;;;21.17;17.23;;;11.50;99.90;;;;;;4919688;28;90985;-33
2022/11/11 11:40:23;;;;;;;17.92;16.02;;;11.60;99.90;;;;;;4920987;28;89629;-34
2022/11/11 11:42:49;;;;;;;24.83;16.70;;;11.60;99.90;;;;;;4920671;28;90046;-32
2022/11/11 11:45:25;;;;;;;18.52;15.98;;;11.70;99.90;;;;;;4920654;28;89718;-31
2022/11/11 11:48:01;;;;;;;22.73;18.35;;;11.80;99.90;;;;;;4920532;28;89157;-31
2022/11/11 11:50:32;;;;;;;22.00;16.58;;;12.00;99.90;;;;;;4921301;28;88485;-31
2022/11/11 11:53:37;;;;;;;19.20;14.30;;;12.10;99.90;;;;;;4920785;28;90142;-30
2022/11/11 11:56:05;;;;;;;16.58;13.18;;;12.20;99.90;;;;;;4919366;28;89602;-31
2022/11/11 11:59:08;;;;;;;19.02;16.23;;;12.30;99.90;;;;;;4919936;28;89381;-32
2022/11/11 12:01:45;;;;;;;21.02;15.10;;;12.40;99.90;;;;;;4920254;28;88859;-33
2022/11/11 12:04:33;;;;;;;20.23;15.70;;;12.40;99.90;;;;;;4920752;28;89137;-31
2022/11/11 12:07:44;;;;;;;18.10;16.17;;;12.50;99.90;;;;;;4920614;28;89912;-30
2022/11/11 12:10:34;;;;;;;24.98;17.60;;;12.50;99.90;;;;;;4859010;28;89688;-32
2022/11/11 12:13:11;;;;;;;20.80;16.17;;;12.60;99.90;;;;;;4859803;28;89503;-31
2022/11/11 12:15:48;;;;;;;17.42;14.88;;;12.70;99.90;;;;;;4894601;28;89421;-32
2022/11/11 12:18:18;;;;;;;19.75;15.15;;;12.80;99.90;;;;;;4920400;28;91051;-32
2022/11/11 12:20:50;;;;;;;17.33;13.73;;;12.80;99.90;;;;;;4920792;28;89682;-33
2022/11/11 12:23:48;;;;;;;18.90;14.63;;;12.80;99.90;;;;;;4919681;28;89199;-31
2022/11/11 12:26:35;;;;;;;16.67;13.90;;;12.80;99.90;;;;;;4919751;28;90338;-31
2022/11/11 12:29:10;;;;;;;18.17;16.00;;;12.80;99.90;;;;;;4918885;28;90685;-31
2022/11/11 12:31:35;;;;;;;17.30;14.10;;;12.80;99.90;;;;;;4921141;28;90045;-30
2022/11/11 12:34:24;;;;;;;16.90;14.60;;;12.80;99.90;;;;;;4920040;28;90018;-32
2022/11/11 12:37:14;;;;;;;23.35;14.93;;;12.90;99.90;;;;;;4908474;28;90190;-32
2022/11/11 12:39:48;;;;;;;19.33;15.23;;;12.90;99.90;;;;;;4919700;28;89913;-34
2022/11/11 12:42:34;;;;;;;15.88;13.52;;;12.90;99.90;;;;;;4920684;28;89507;-33
2022/11/11 12:45:16;;;;;;;19.05;15.55;;;12.90;99.90;;;;;;4920661;28;89639;-32
2022/11/11 12:48:00;;;;;;;19.80;13.88;;;12.80;99.90;;;;;;4919444;28;90342;-33
2022/11/11 12:51:08;;;;;;;15.77;13.68;;;12.80;99.90;;;;;;4909152;28;89548;-32
2022/11/11 12:53:49;;;;;;;18.50;16.73;;;12.90;99.90;;;;;;4912328;28;89676;-31
2022/11/11 12:56:46;;;;;;;18.02;14.10;;;12.90;99.90;;;;;;4919737;28;89268;-31
2022/11/11 12:59:21;;;;;;;20.42;14.73;;;12.90;99.90;;;;;;4919830;28;90391;-32
2022/11/11 13:02:20;;;;;;;19.02;14.52;;;12.80;99.90;;;;;;4919337;28;89347;-31
2022/11/11 13:05:03;;;;;;;23.00;13.70;;;12.80;99.90;;;;;;4919444;28;89747;-33
2022/11/11 13:07:41;;;;;;;16.17;12.77;;;12.80;99.90;;;;;;4920230;28;88459;-31
2022/11/11 13:10:29;;;;;;;16.23;14.50;;;12.90;99.90;;;;;;4919885;28;90311;-33
2022/11/11 13:13:19;;;;;;;18.42;14.80;;;12.90;99.90;;;;;;4920031;28;89671;-31
2022/11/11 13:15:47;;;;;;;16.42;12.00;;;13.00;99.90;;;;;;4907233;28;89605;-32
2022/11/11 13:18:17;;;;;;;;;;;13.00;99.90;;;;;;4919627;28;89069;-33
2022/11/11 13:20:51;;;;;;;14.52;12.95;;;13.00;99.90;;;;;;4921596;28;89068;-30
2022/11/11 13:23:17;;;;;;;13.93;11.73;;;13.00;99.90;;;;;;4919198;28;91222;-33
2022/11/11 13:25:49;;;;;;;17.50;12.48;;;12.90;99.90;;;;;;4919983;28;88664;-31
2022/11/11 13:28:37;;;;;;;15.57;10.73;;;12.80;99.90;;;;;;4923307;28;90370;-30
2022/11/11 13:31:17;;;;;;;16.98;12.88;;;12.80;99.90;;;;;;4922368;28;90066;-32
2022/11/11 13:33:50;;;;;;;14.65;13.13;;;12.80;99.90;;;;;;4922288;28;89923;-31
2022/11/11 13:36:19;;;;;;;12.05;10.65;;;12.70;99.90;;;;;;4923172;28;89486;-32
2022/11/11 13:38:52;;;;;;;19.17;12.43;;;12.70;99.90;;;;;;4922774;28;88686;-31
2022/11/11 13:41:31;;;;;;;18.00;12.65;;;12.80;99.90;;;;;;4923110;28;88263;-33
2022/11/11 13:44:00;;;;;;;18.00;12.00;;;12.80;99.90;;;;;;4922007;28;89398;-34
2022/11/11 13:46:40;;;;;;;12.35;10.95;;;12.70;99.90;;;;;;4922941;28;89693;-31
2022/11/11 13:49:29;;;;;;;15.43;10.43;;;12.70;99.90;;;;;;4921784;28;89159;-31
2022/11/11 13:52:03;;;;;;;13.13;10.82;;;12.70;99.90;;;;;;4910032;28;89503;-33
2022/11/11 13:54:41;;;;;;;12.13;10.93;;;12.60;99.90;;;;;;4922558;28;89345;-31
2022/11/11 13:57:13;;;;;;;19.63;12.32;;;12.50;99.90;;;;;;4910209;28;89796;-30
2022/11/11 13:59:42;;;;;;;12.98;10.45;;;12.50;99.90;;;;;;4922773;28;88719;-31
2022/11/11 14:02:18;;;;;;;16.83;9.73;;;12.50;99.90;;;;;;4923198;28;90566;-32
2022/11/11 14:05:05;;;;;;;17.58;11.85;;;12.50;99.90;;;;;;4922220;28;90246;-32